createdAt,value
2019-01-09T00:01:13.274Z,97627.00
2019-01-09T00:03:42.893Z,97646.00
2019-01-09T00:06:12.666Z,97640.00
2019-01-09T00:08:42.267Z,97639.00
2019-01-09T00:11:11.768Z,97644.00
2019-01-09T00:13:43.447Z,97641.00
2019-01-09T00:16:13.163Z,97643.00
2019-01-09T00:18:42.862Z,97641.00
2019-01-09T00:21:12.416Z,97628.00
2019-01-09T00:23:42.192Z,97643.00
2019-01-09T00:26:11.670Z,97634.00
2019-01-09T00:28:41.200Z,97633.00
2019-01-09T00:31:10.899Z,97627.00
2019-01-09T00:33:40.500Z,97649.00
2019-01-09T00:36:10.099Z,97648.00
2019-01-09T00:38:40.687Z,97636.00
2019-01-09T00:41:10.458Z,97650.00
2019-01-09T00:43:40.421Z,97645.00
2019-01-09T00:46:10.074Z,97645.00
2019-01-09T00:48:39.776Z,97638.00
2019-01-09T00:51:09.300Z,97642.00
2019-01-09T00:53:38.998Z,97645.00
2019-01-09T00:56:08.513Z,97643.00
2019-01-09T00:58:38.226Z,97633.00
2019-01-09T01:01:07.840Z,97638.00
2019-01-09T01:04:21.169Z,97642.00
2019-01-09T01:07:44.258Z,97645.00
2019-01-09T01:11:07.321Z,97646.00
2019-01-09T01:14:02.912Z,97647.00
2019-01-09T01:17:19.651Z,97655.00
2019-01-09T01:20:19.788Z,97665.00
2019-01-09T01:23:41.915Z,97663.00
2019-01-09T01:26:30.343Z,97697.00
2019-01-09T01:29:24.165Z,97709.00
2019-01-09T01:32:13.396Z,97701.00
2019-01-09T01:35:20.089Z,97701.00
2019-01-09T01:38:11.406Z,97683.00
2019-01-09T01:41:25.636Z,97703.00
2019-01-09T01:44:11.423Z,97698.00
2019-01-09T01:47:36.665Z,97693.00
2019-01-09T01:51:08.531Z,97689.00
2019-01-09T01:54:08.115Z,97674.00
2019-01-09T01:57:04.551Z,97665.00
2019-01-09T02:00:03.965Z,97674.00
2019-01-09T02:03:14.524Z,97678.00
2019-01-09T02:06:03.944Z,97674.00
2019-01-09T02:09:24.222Z,97681.00
2019-01-09T02:12:42.552Z,97681.00
2019-01-09T02:16:05.511Z,97674.00
2019-01-09T02:19:10.472Z,97680.00
2019-01-09T02:22:36.093Z,97681.00
2019-01-09T02:25:21.131Z,97676.00
2019-01-09T02:28:27.713Z,97674.00
2019-01-09T02:31:53.360Z,97679.00
2019-01-09T02:34:22.837Z,97665.00
2019-01-09T02:36:52.446Z,97672.00
2019-01-09T02:39:22.124Z,97674.00
2019-01-09T02:41:51.667Z,97672.00
2019-01-09T02:44:21.270Z,97661.00
2019-01-09T02:46:50.887Z,97668.00
2019-01-09T02:49:20.749Z,97671.00
2019-01-09T02:51:50.198Z,97665.00
2019-01-09T02:54:20.245Z,97663.00
2019-01-09T02:56:49.826Z,97668.00
2019-01-09T02:59:19.442Z,97651.00
2019-01-09T03:01:48.926Z,97650.00
2019-01-09T03:04:18.655Z,97642.00
2019-01-09T03:06:48.248Z,97645.00
2019-01-09T03:09:17.765Z,97648.00
2019-01-09T03:11:47.174Z,97646.00
2019-01-09T03:14:16.796Z,97642.00
2019-01-09T03:16:46.415Z,97641.00
2019-01-09T03:19:16.018Z,97635.00
2019-01-09T03:21:45.621Z,97635.00
2019-01-09T03:24:15.125Z,97634.00
2019-01-09T03:26:44.643Z,97629.00
2019-01-09T03:29:14.127Z,97623.00
2019-01-09T03:31:43.837Z,97640.00
2019-01-09T03:34:13.440Z,97624.00
2019-01-09T03:36:43.114Z,97625.00
2019-01-09T03:39:12.727Z,97619.00
2019-01-09T03:41:42.381Z,97617.00
2019-01-09T03:44:11.979Z,97625.00
2019-01-09T03:46:41.595Z,97613.00
2019-01-09T03:49:11.155Z,97602.00
2019-01-09T03:51:43.869Z,97601.00
2019-01-09T03:54:13.472Z,97610.00
2019-01-09T03:56:43.079Z,97599.00
2019-01-09T03:59:12.726Z,97600.00
2019-01-09T04:01:42.628Z,97604.00
2019-01-09T04:04:12.213Z,97593.00
2019-01-09T04:06:44.826Z,97591.00
2019-01-09T04:09:14.411Z,97603.00
2019-01-09T04:11:44.033Z,97604.00
2019-01-09T04:14:13.618Z,97609.00
2019-01-09T04:16:43.220Z,97619.00
2019-01-09T04:19:12.851Z,97609.00
2019-01-09T04:21:42.623Z,97627.00
2019-01-09T04:24:12.320Z,97633.00
2019-01-09T04:26:42.114Z,97624.00
2019-01-09T04:29:11.852Z,97645.00
2019-01-09T04:31:41.426Z,97639.00
2019-01-09T04:34:11.105Z,97657.00
2019-01-09T04:36:41.228Z,97653.00
2019-01-09T04:39:10.949Z,97651.00
2019-01-09T04:41:40.431Z,97632.00
2019-01-09T04:44:10.170Z,97627.00
2019-01-09T04:46:39.867Z,97636.00
2019-01-09T04:49:09.554Z,97615.00
2019-01-09T04:51:39.292Z,97612.00
2019-01-09T04:54:08.909Z,97617.00
2019-01-09T04:56:38.704Z,97606.00
2019-01-09T04:59:08.418Z,97609.00
2019-01-09T05:01:37.877Z,97615.00
2019-01-09T05:04:07.438Z,97613.00
2019-01-09T05:06:37.165Z,97610.00
2019-01-09T05:09:07.412Z,97618.00
2019-01-09T05:11:37.195Z,97618.00
2019-01-09T05:14:06.808Z,97623.00
2019-01-09T05:16:36.669Z,97633.00
2019-01-09T05:19:06.211Z,97628.00
2019-01-09T05:21:35.728Z,97634.00
2019-01-09T05:24:05.350Z,97636.00
2019-01-09T05:26:35.326Z,97642.00
2019-01-09T05:29:04.951Z,97646.00
2019-01-09T05:31:34.970Z,97640.00
2019-01-09T05:34:04.930Z,97649.00
2019-01-09T05:36:34.273Z,97636.00
2019-01-09T05:39:05.303Z,97639.00
2019-01-09T05:41:35.242Z,97646.00
2019-01-09T05:44:04.735Z,97643.00
2019-01-09T05:46:34.428Z,97642.00
2019-01-09T05:49:04.083Z,97645.00
2019-01-09T05:51:33.583Z,97648.00
2019-01-09T05:54:03.270Z,97646.00
2019-01-09T05:56:32.815Z,97642.00
2019-01-09T05:59:02.400Z,97636.00
2019-01-09T06:01:32.256Z,97644.00
2019-01-09T06:04:01.669Z,97640.00
2019-01-09T06:06:31.238Z,97646.00
2019-01-09T06:09:00.768Z,97650.00
2019-01-09T06:11:30.346Z,97650.00
2019-01-09T06:14:00.017Z,97653.00
2019-01-09T06:16:29.725Z,97657.00
2019-01-09T06:18:59.536Z,97659.00
2019-01-09T06:21:29.310Z,97664.00
2019-01-09T06:23:58.758Z,97668.00
2019-01-09T06:26:28.423Z,97658.00
2019-01-09T06:28:58.077Z,97661.00
2019-01-09T06:31:27.740Z,97666.00
2019-01-09T06:33:57.212Z,97666.00
2019-01-09T06:36:26.811Z,97668.00
2019-01-09T06:38:56.355Z,97668.00
2019-01-09T06:41:25.952Z,97659.00
2019-01-09T06:43:55.566Z,97668.00
2019-01-09T06:46:27.946Z,97674.00
2019-01-09T06:48:57.460Z,97674.00
2019-01-09T06:51:26.930Z,97677.00
2019-01-09T06:53:56.993Z,97684.00
2019-01-09T06:56:26.670Z,97678.00
2019-01-09T06:58:56.275Z,97684.00
2019-01-09T07:01:25.776Z,97685.00
2019-01-09T07:03:55.434Z,97696.00
2019-01-09T07:06:25.125Z,97686.00
2019-01-09T07:08:54.739Z,97687.00
2019-01-09T07:11:24.203Z,97690.00
2019-01-09T07:13:53.949Z,97699.00
2019-01-09T07:16:23.544Z,97697.00
2019-01-09T07:18:53.529Z,97704.00
2019-01-09T07:21:23.048Z,97700.00
2019-01-09T07:23:52.589Z,97709.00
2019-01-09T07:26:22.169Z,97706.00
2019-01-09T07:28:51.741Z,97717.00
2019-01-09T07:31:21.271Z,97704.00
2019-01-09T07:33:50.796Z,97704.00
2019-01-09T07:36:20.275Z,97712.00
2019-01-09T07:38:50.283Z,97718.00
2019-01-09T07:41:20.033Z,97717.00
2019-01-09T07:43:49.629Z,97717.00
2019-01-09T07:46:19.197Z,97711.00
2019-01-09T07:48:48.952Z,97717.00
2019-01-09T07:51:18.567Z,97724.00
2019-01-09T07:53:48.096Z,97731.00
2019-01-09T07:56:17.977Z,97709.00
2019-01-09T07:58:47.480Z,97725.00
2019-01-09T08:01:17.453Z,97722.00
2019-01-09T08:03:47.080Z,97715.00
2019-01-09T08:06:16.851Z,97722.00
2019-01-09T08:08:46.289Z,97727.00
2019-01-09T08:11:16.070Z,97725.00
2019-01-09T08:13:45.619Z,97737.00
2019-01-09T08:16:15.778Z,97731.00
2019-01-09T08:18:45.275Z,97745.00
2019-01-09T08:21:14.786Z,97738.00
2019-01-09T08:23:44.291Z,97738.00
2019-01-09T08:26:13.899Z,97735.00
2019-01-09T08:28:43.499Z,97752.00
2019-01-09T08:31:13.141Z,97753.00
2019-01-09T08:33:42.725Z,97757.00
2019-01-09T08:36:12.334Z,97760.00
2019-01-09T08:38:41.925Z,97759.00
2019-01-09T08:41:11.631Z,97755.00
2019-01-09T08:43:41.154Z,97759.00
2019-01-09T08:46:10.591Z,97770.00
2019-01-09T08:48:40.175Z,97771.00
2019-01-09T08:51:09.838Z,97770.00
2019-01-09T08:53:39.604Z,97761.00
2019-01-09T08:56:09.095Z,97777.00
2019-01-09T08:58:38.780Z,97775.00
2019-01-09T09:01:08.360Z,97786.00
2019-01-09T09:03:38.127Z,97786.00
2019-01-09T09:06:07.640Z,97792.00
2019-01-09T09:08:37.139Z,97797.00
2019-01-09T09:11:07.122Z,97798.00
2019-01-09T09:13:38.324Z,97793.00
2019-01-09T09:16:09.297Z,97801.00
2019-01-09T09:18:38.981Z,97795.00
2019-01-09T09:21:08.483Z,97799.00
2019-01-09T09:23:38.318Z,97813.00
2019-01-09T09:26:08.192Z,97812.00
2019-01-09T09:28:37.745Z,97818.00
2019-01-09T09:31:07.461Z,97814.00
2019-01-09T09:33:37.413Z,97806.00
2019-01-09T09:36:06.927Z,97812.00
2019-01-09T09:38:36.531Z,97813.00
2019-01-09T09:41:06.053Z,97818.00
2019-01-09T09:43:35.657Z,97822.00
2019-01-09T09:46:05.185Z,97825.00
2019-01-09T09:48:34.772Z,97831.00
2019-01-09T09:51:04.260Z,97826.00
2019-01-09T09:53:34.610Z,97832.00
2019-01-09T09:56:04.209Z,97830.00
2019-01-09T09:58:33.821Z,97832.00
2019-01-09T10:01:03.451Z,97837.00
2019-01-09T10:03:33.134Z,97846.00
2019-01-09T10:06:02.748Z,97841.00
2019-01-09T10:08:32.341Z,97844.00
2019-01-09T10:11:01.957Z,97849.00
2019-01-09T10:13:31.569Z,97844.00
2019-01-09T10:16:01.181Z,97856.00
2019-01-09T10:18:30.764Z,97842.00
2019-01-09T10:21:00.414Z,97841.00
2019-01-09T10:23:30.610Z,97845.00
2019-01-09T10:26:00.327Z,97841.00
2019-01-09T10:28:29.810Z,97839.00
2019-01-09T10:30:59.338Z,97828.00
2019-01-09T10:33:29.033Z,97849.00
2019-01-09T10:35:58.560Z,97842.00
2019-01-09T10:38:28.012Z,97840.00
2019-01-09T10:40:58.132Z,97837.00
2019-01-09T10:43:27.707Z,97841.00
2019-01-09T10:45:57.295Z,97839.00
2019-01-09T10:48:27.205Z,97849.00
2019-01-09T10:50:56.811Z,97845.00
2019-01-09T10:53:26.421Z,97854.00
2019-01-09T10:55:56.216Z,97854.00
2019-01-09T10:58:25.847Z,97851.00
2019-01-09T11:00:56.996Z,97845.00
2019-01-09T11:03:26.588Z,97843.00
2019-01-09T11:05:56.822Z,97849.00
2019-01-09T11:08:26.423Z,97848.00
2019-01-09T11:10:55.952Z,97851.00
2019-01-09T11:13:25.863Z,97849.00
2019-01-09T11:15:55.437Z,97839.00
2019-01-09T11:18:25.484Z,97841.00
2019-01-09T11:21:00.269Z,97829.00
2019-01-09T11:23:30.018Z,97828.00
2019-01-09T11:25:59.551Z,97828.00
2019-01-09T11:28:29.295Z,97821.00
2019-01-09T11:30:58.834Z,97832.00
2019-01-09T11:33:28.562Z,97830.00
2019-01-09T11:35:58.227Z,97835.00
2019-01-09T11:38:27.731Z,97841.00
2019-01-09T11:40:57.449Z,97833.00
2019-01-09T11:43:27.162Z,97842.00
2019-01-09T11:45:56.767Z,97842.00
2019-01-09T11:48:26.420Z,97841.00
2019-01-09T11:50:56.032Z,97840.00
2019-01-09T11:53:25.627Z,97837.00
2019-01-09T11:55:55.139Z,97837.00
2019-01-09T11:58:24.643Z,97843.00
2019-01-09T12:00:54.363Z,97846.00
2019-01-09T12:03:24.174Z,97850.00
2019-01-09T12:05:54.045Z,97855.00
2019-01-09T12:08:23.797Z,97864.00
2019-01-09T12:10:53.500Z,97857.00
2019-01-09T12:13:23.105Z,97862.00
2019-01-09T12:15:52.922Z,97862.00
2019-01-09T12:18:22.534Z,97873.00
2019-01-09T12:20:52.182Z,97870.00
2019-01-09T12:23:21.752Z,97875.00
2019-01-09T12:25:51.801Z,97871.00
2019-01-09T12:28:21.497Z,97872.00
2019-01-09T12:30:51.178Z,97888.00
2019-01-09T12:33:20.706Z,97884.00
2019-01-09T12:35:50.306Z,97897.00
2019-01-09T12:38:19.925Z,97886.00
2019-01-09T12:40:49.704Z,97895.00
2019-01-09T12:43:19.935Z,97899.00
2019-01-09T12:45:49.824Z,97911.00
2019-01-09T12:48:19.442Z,97904.00
2019-01-09T12:50:49.190Z,97901.00
2019-01-09T12:53:18.895Z,97917.00
2019-01-09T12:55:48.611Z,97907.00
2019-01-09T12:58:18.242Z,97921.00
2019-01-09T13:00:47.921Z,97923.00
2019-01-09T13:03:17.745Z,97925.00
2019-01-09T13:05:47.335Z,97920.00
2019-01-09T13:08:16.854Z,97933.00
2019-01-09T13:10:46.367Z,97936.00
2019-01-09T13:13:16.072Z,97935.00
2019-01-09T13:15:45.670Z,97935.00
2019-01-09T13:18:15.452Z,97932.00
2019-01-09T13:20:45.189Z,97934.00
2019-01-09T13:23:14.980Z,97936.00
2019-01-09T13:25:44.737Z,97939.00
2019-01-09T13:28:14.567Z,97942.00
2019-01-09T13:30:44.282Z,97943.00
2019-01-09T13:33:13.847Z,97943.00
2019-01-09T13:35:43.778Z,97936.00
2019-01-09T13:38:13.753Z,97947.00
2019-01-09T13:40:43.613Z,97950.00
2019-01-09T13:43:13.118Z,97943.00
2019-01-09T13:45:42.831Z,97953.00
2019-01-09T13:48:12.519Z,97945.00
2019-01-09T13:50:42.054Z,97946.00
2019-01-09T13:53:11.641Z,97955.00
2019-01-09T13:55:41.331Z,97954.00
2019-01-09T13:58:11.324Z,97966.00
2019-01-09T14:00:40.800Z,97961.00
2019-01-09T14:03:10.342Z,97969.00
2019-01-09T14:05:40.197Z,97959.00
2019-01-09T14:08:10.120Z,97960.00
2019-01-09T14:10:41.023Z,97973.00
2019-01-09T14:13:11.047Z,97978.00
2019-01-09T14:15:40.893Z,97976.00
2019-01-09T14:18:11.184Z,97976.00
2019-01-09T14:20:40.960Z,97978.00
2019-01-09T14:23:10.378Z,97984.00
2019-01-09T14:25:40.249Z,97988.00
2019-01-09T14:28:09.903Z,97989.00
2019-01-09T14:30:40.836Z,97993.00
2019-01-09T14:33:10.429Z,97986.00
2019-01-09T14:35:40.387Z,97995.00
2019-01-09T14:38:10.170Z,97996.00
2019-01-09T14:40:39.801Z,97998.00
2019-01-09T14:43:09.544Z,97998.00
2019-01-09T14:45:39.557Z,98008.00
2019-01-09T14:48:13.243Z,98009.00
2019-01-09T14:50:42.978Z,97999.00
2019-01-09T14:53:13.120Z,98010.00
2019-01-09T14:55:44.077Z,98017.00
2019-01-09T14:58:14.208Z,98010.00
2019-01-09T15:00:45.273Z,98007.00
2019-01-09T15:03:14.944Z,98013.00
2019-01-09T15:05:44.617Z,98014.00
2019-01-09T15:08:14.364Z,98022.00
2019-01-09T15:10:44.324Z,98025.00
2019-01-09T15:13:14.030Z,98023.00
2019-01-09T15:15:44.185Z,98014.00
2019-01-09T15:18:14.052Z,98029.00
2019-01-09T15:21:04.051Z,98027.00
2019-01-09T15:23:34.943Z,98029.00
2019-01-09T15:26:06.081Z,98029.00
2019-01-09T15:28:40.906Z,98040.00
2019-01-09T15:31:11.932Z,98041.00
2019-01-09T15:33:41.674Z,98040.00
2019-01-09T15:36:12.183Z,98050.00
2019-01-09T15:38:42.143Z,98044.00
2019-01-09T15:41:12.614Z,98048.00
2019-01-09T15:43:48.548Z,98052.00
2019-01-09T15:46:19.003Z,98045.00
2019-01-09T15:48:48.889Z,98053.00
2019-01-09T15:51:18.546Z,98057.00
2019-01-09T15:53:48.225Z,98061.00
2019-01-09T15:56:18.093Z,98064.00
2019-01-09T15:58:47.804Z,98074.00
2019-01-09T16:01:17.434Z,98063.00
2019-01-09T16:03:46.994Z,98067.00
2019-01-09T16:06:16.726Z,98072.00
2019-01-09T16:08:46.353Z,98071.00
2019-01-09T16:11:15.940Z,98074.00
2019-01-09T16:13:45.858Z,98075.00
2019-01-09T16:16:15.900Z,98072.00
2019-01-09T16:18:45.592Z,98084.00
2019-01-09T16:21:15.499Z,98091.00
2019-01-09T16:23:45.215Z,98087.00
2019-01-09T16:26:14.861Z,98095.00
2019-01-09T16:28:44.529Z,98093.00
2019-01-09T16:31:27.207Z,98088.00
2019-01-09T16:33:57.338Z,98106.00
2019-01-09T16:36:27.922Z,98099.00
2019-01-09T16:38:57.576Z,98097.00
2019-01-09T16:41:27.332Z,98103.00
2019-01-09T16:43:57.444Z,98099.00
2019-01-09T16:46:27.276Z,98098.00
2019-01-09T16:48:57.033Z,98103.00
2019-01-09T16:51:26.701Z,98119.00
2019-01-09T16:53:56.700Z,98105.00
2019-01-09T16:56:26.750Z,98111.00
2019-01-09T16:58:56.544Z,98112.00
2019-01-09T17:01:26.516Z,98123.00
2019-01-09T17:03:56.259Z,98116.00
2019-01-09T17:06:26.372Z,98112.00
2019-01-09T17:08:56.108Z,98118.00
2019-01-09T17:11:25.692Z,98125.00
2019-01-09T17:13:55.417Z,98128.00
2019-01-09T17:16:25.010Z,98116.00
2019-01-09T17:18:54.948Z,98123.00
2019-01-09T17:21:24.998Z,98120.00
2019-01-09T17:23:54.771Z,98119.00
2019-01-09T17:26:25.019Z,98123.00
2019-01-09T17:28:55.216Z,98128.00
2019-01-09T17:31:25.006Z,98142.00
2019-01-09T17:33:54.709Z,98131.00
2019-01-09T17:36:28.808Z,98131.00
2019-01-09T17:38:58.541Z,98139.00
2019-01-09T17:41:28.044Z,98146.00
2019-01-09T17:43:57.892Z,98141.00
2019-01-09T17:46:27.595Z,98150.00
2019-01-09T17:48:57.317Z,98144.00
2019-01-09T17:51:27.143Z,98156.00
2019-01-09T17:53:56.962Z,98155.00
2019-01-09T17:56:26.847Z,98163.00
2019-01-09T17:58:56.348Z,98165.00
2019-01-09T18:01:25.817Z,98161.00
2019-01-09T18:03:55.586Z,98175.00
2019-01-09T18:06:25.198Z,98166.00
2019-01-09T18:08:55.084Z,98171.00
2019-01-09T18:11:24.866Z,98173.00
2019-01-09T18:13:54.610Z,98180.00
2019-01-09T18:16:24.333Z,98171.00
2019-01-09T18:19:40.749Z,98184.00
2019-01-09T18:22:11.025Z,98173.00
2019-01-09T18:24:41.081Z,98189.00
2019-01-09T18:27:11.168Z,98170.00
2019-01-09T18:29:41.202Z,98184.00
2019-01-09T18:32:21.476Z,98180.00
2019-01-09T18:35:16.500Z,98190.00
2019-01-09T18:38:35.264Z,98194.00
2019-01-09T18:41:19.306Z,98180.00
2019-01-09T18:44:27.216Z,98187.00
2019-01-09T18:47:31.744Z,98188.00
2019-01-09T18:51:00.648Z,98199.00
2019-01-09T18:53:33.958Z,98197.00
2019-01-09T18:56:04.034Z,98197.00
2019-01-09T18:58:34.412Z,98192.00
2019-01-09T19:01:04.365Z,98204.00
2019-01-09T19:03:34.553Z,98205.00
2019-01-09T19:06:04.610Z,98211.00
2019-01-09T19:08:34.381Z,98214.00
2019-01-09T19:11:07.849Z,98210.00
2019-01-09T19:13:36.553Z,98208.00
2019-01-09T19:16:06.774Z,98207.00
2019-01-09T19:18:37.384Z,98224.00
2019-01-09T19:21:07.312Z,98217.00
2019-01-09T19:23:37.006Z,98220.00
2019-01-09T19:26:06.742Z,98228.00
2019-01-09T19:28:36.456Z,98221.00
2019-01-09T19:31:06.225Z,98233.00
2019-01-09T19:33:36.123Z,98232.00
2019-01-09T19:36:05.952Z,98236.00
2019-01-09T19:38:35.700Z,98240.00
2019-01-09T19:41:05.158Z,98250.00
2019-01-09T19:43:34.917Z,98247.00
2019-01-09T19:46:04.982Z,98239.00
2019-01-09T19:48:34.817Z,98236.00
2019-01-09T19:51:04.851Z,98243.00
2019-01-09T19:53:34.705Z,98246.00
2019-01-09T19:56:04.672Z,98250.00
2019-01-09T19:58:34.396Z,98255.00
2019-01-09T20:01:03.989Z,98259.00
2019-01-09T20:03:33.627Z,98255.00
2019-01-09T20:06:03.544Z,98262.00
2019-01-09T20:08:33.150Z,98266.00
2019-01-09T20:11:02.810Z,98269.00
2019-01-09T20:13:32.409Z,98275.00
2019-01-09T20:16:01.936Z,98275.00
2019-01-09T20:18:31.731Z,98280.00
2019-01-09T20:21:01.520Z,98288.00
2019-01-09T20:23:31.318Z,98273.00
2019-01-09T20:26:00.841Z,98287.00
2019-01-09T20:28:32.029Z,98290.00
2019-01-09T20:31:01.588Z,98293.00
2019-01-09T20:33:31.272Z,98285.00
2019-01-09T20:36:00.901Z,98291.00
2019-01-09T20:38:30.699Z,98285.00
2019-01-09T20:41:00.214Z,98294.00
2019-01-09T20:43:29.880Z,98298.00
2019-01-09T20:45:59.613Z,98288.00
2019-01-09T20:48:29.407Z,98288.00
2019-01-09T20:51:00.960Z,98293.00
2019-01-09T20:53:33.455Z,98305.00
2019-01-09T20:56:04.392Z,98304.00
2019-01-09T20:58:38.024Z,98303.00
2019-01-09T21:01:07.855Z,98298.00
2019-01-09T21:03:37.580Z,98303.00
2019-01-09T21:06:07.936Z,98310.00
2019-01-09T21:08:37.615Z,98322.00
2019-01-09T21:11:07.211Z,98333.00
2019-01-09T21:13:36.859Z,98331.00
2019-01-09T21:16:06.516Z,98334.00
2019-01-09T21:18:36.133Z,98326.00
2019-01-09T21:21:05.946Z,98336.00
2019-01-09T21:23:35.519Z,98325.00
2019-01-09T21:26:04.992Z,98326.00
2019-01-09T21:28:34.755Z,98343.00
2019-01-09T21:31:04.223Z,98342.00
2019-01-09T21:33:33.847Z,98339.00
2019-01-09T21:36:03.519Z,98335.00
2019-01-09T21:38:33.183Z,98340.00
2019-01-09T21:41:02.919Z,98346.00
2019-01-09T21:43:32.723Z,98341.00
2019-01-09T21:46:02.409Z,98341.00
2019-01-09T21:48:32.277Z,98340.00
2019-01-09T21:51:02.322Z,98352.00
2019-01-09T21:53:31.946Z,98356.00
2019-01-09T21:56:02.191Z,98353.00
2019-01-09T21:58:32.627Z,98365.00
2019-01-09T22:01:02.306Z,98354.00
2019-01-09T22:03:32.964Z,98373.00
2019-01-09T22:06:02.562Z,98373.00
2019-01-09T22:08:32.288Z,98372.00
2019-01-09T22:11:02.066Z,98376.00
2019-01-09T22:13:31.884Z,98382.00
2019-01-09T22:16:01.625Z,98385.00
2019-01-09T22:18:31.433Z,98373.00
2019-01-09T22:21:01.294Z,98378.00
2019-01-09T22:23:31.367Z,98377.00
2019-01-09T22:26:01.158Z,98390.00
2019-01-09T22:28:30.651Z,98378.00
2019-01-09T22:31:00.265Z,98386.00
2019-01-09T22:33:29.927Z,98384.00
2019-01-09T22:35:59.391Z,98390.00
2019-01-09T22:38:28.888Z,98384.00
2019-01-09T22:40:58.615Z,98383.00
2019-01-09T22:43:28.194Z,98376.00
2019-01-09T22:45:58.146Z,98388.00
2019-01-09T22:48:27.731Z,98390.00
2019-01-09T22:50:57.596Z,98401.00
2019-01-09T22:53:27.359Z,98396.00
2019-01-09T22:55:56.855Z,98402.00
2019-01-09T22:58:26.472Z,98401.00
2019-01-09T23:01:12.168Z,98403.00
2019-01-09T23:03:41.794Z,98396.00
2019-01-09T23:06:14.624Z,98399.00
2019-01-09T23:08:44.366Z,98398.00
2019-01-09T23:11:14.095Z,98411.00
2019-01-09T23:13:43.681Z,98402.00
2019-01-09T23:16:13.371Z,98410.00
2019-01-09T23:18:43.298Z,98412.00
2019-01-09T23:21:12.929Z,98410.00
2019-01-09T23:23:42.640Z,98416.00
2019-01-09T23:26:12.248Z,98403.00
2019-01-09T23:28:41.837Z,98414.00
2019-01-09T23:31:11.550Z,98410.00
2019-01-09T23:33:41.267Z,98415.00
2019-01-09T23:36:10.880Z,98420.00
2019-01-09T23:38:40.899Z,98411.00
2019-01-09T23:41:10.511Z,98423.00
2019-01-09T23:43:40.082Z,98426.00
2019-01-09T23:46:09.598Z,98414.00
2019-01-09T23:48:39.235Z,98413.00
2019-01-09T23:51:08.730Z,98413.00
2019-01-09T23:53:38.349Z,98418.00
2019-01-09T23:56:11.295Z,98410.00
2019-01-09T23:58:40.885Z,98408.00
